Time;durP1;ratioP1;P1;durP2;ratioP2;P2;SDS_P1;SDS_P2;PMS_P1;PMS_P2;Temp;Humidity;BMP_temperature;BMP_pressure;BME280_temperature;BME280_humidity;BME280_pressure;Samples;Min_cycle;Max_cycle;Signal;HPM_P1;HPM_P2
2021/12/19 00:01:06;;;;;;;41.22;21.02;;;1.80;99.90;;;;;;5091551;28;20216;-79
2021/12/19 00:03:49;;;;;;;42.60;22.33;;;1.80;99.90;;;;;;5091991;28;20490;-78
2021/12/19 00:09:01;;;;;;;39.47;19.77;;;1.70;99.90;;;;;;5092116;28;20195;-78
2021/12/19 00:11:29;;;;;;;37.80;20.13;;;1.70;99.90;;;;;;5090802;28;20211;-78
2021/12/19 00:13:59;;;;;;;47.85;22.77;;;1.60;99.90;;;;;;5091279;28;20230;-78
2021/12/19 00:16:28;;;;;;;42.03;22.05;;;1.60;99.90;;;;;;5091002;28;20208;-78
2021/12/19 00:18:55;;;;;;;44.95;22.45;;;1.70;99.90;;;;;;5091105;28;20226;-78
2021/12/19 00:21:24;;;;;;;38.22;19.55;;;1.70;99.90;;;;;;5090400;28;20211;-77
2021/12/19 00:23:53;;;;;;;39.85;19.63;;;1.70;99.90;;;;;;5091070;28;20223;-77
2021/12/19 00:26:23;;;;;;;46.45;24.42;;;1.70;99.90;;;;;;5092058;28;20605;-78
2021/12/19 00:28:51;;;;;;;46.15;23.02;;;1.80;99.90;;;;;;5091445;28;20207;-77
2021/12/19 00:31:18;;;;;;;36.08;20.02;;;1.70;99.90;;;;;;5089923;28;20701;-77
2021/12/19 00:33:47;;;;;;;48.92;22.85;;;1.80;99.90;;;;;;5090494;28;20571;-77
2021/12/19 00:36:15;;;;;;;41.85;21.98;;;1.80;99.90;;;;;;5090655;28;20576;-78
2021/12/19 00:38:41;;;;;;;41.97;23.05;;;1.80;99.90;;;;;;5090959;28;20210;-77
2021/12/19 00:41:09;;;;;;;42.40;22.92;;;1.80;99.90;;;;;;5092271;28;20581;-77
2021/12/19 00:43:44;;;;;;;44.45;22.35;;;1.90;99.90;;;;;;5091704;28;20235;-77
2021/12/19 00:46:19;;;;;;;40.03;20.80;;;1.90;99.90;;;;;;5090939;28;20214;-77
2021/12/19 00:48:50;;;;;;;43.78;22.45;;;1.90;99.90;;;;;;5090790;28;20207;-77
2021/12/19 00:51:23;;;;;;;38.33;20.25;;;1.90;99.90;;;;;;5090183;28;20212;-77
2021/12/19 00:53:51;;;;;;;45.90;22.92;;;1.90;99.90;;;;;;5090169;28;20552;-77
2021/12/19 00:56:17;;;;;;;44.72;20.92;;;2.00;99.90;;;;;;5090823;28;20199;-78
2021/12/19 00:58:46;;;;;;;42.50;21.48;;;1.90;99.90;;;;;;5090764;28;20211;-77
2021/12/19 01:01:14;;;;;;;52.17;22.42;;;1.80;99.90;;;;;;5090376;28;20204;-77
2021/12/19 01:03:44;;;;;;;40.22;20.88;;;1.70;99.90;;;;;;5089818;28;20239;-77
2021/12/19 01:06:12;;;;;;;49.50;22.80;;;1.70;99.90;;;;;;5089489;28;20279;-77
2021/12/19 01:08:39;;;;;;;51.05;21.95;;;1.70;99.90;;;;;;5088147;28;20203;-78
2021/12/19 01:11:06;;;;;;;41.55;20.23;;;1.70;99.90;;;;;;5083614;28;20199;-77
2021/12/19 01:13:33;;;;;;;44.50;19.95;;;1.60;99.90;;;;;;5087510;28;20556;-77
2021/12/19 01:16:01;;;;;;;52.95;19.60;;;1.60;99.90;;;;;;5088978;28;20242;-77
2021/12/19 01:18:29;;;;;;;55.15;19.70;;;1.60;99.90;;;;;;5088754;28;20207;-77
2021/12/19 01:20:56;;;;;;;37.15;18.20;;;1.50;99.90;;;;;;5088249;28;20204;-77
2021/12/19 01:23:25;;;;;;;50.03;18.92;;;1.50;99.90;;;;;;5088754;28;20211;-77
2021/12/19 01:25:52;;;;;;;43.97;18.95;;;1.40;99.90;;;;;;5088742;28;20200;-77
2021/12/19 01:28:20;;;;;;;38.10;18.95;;;1.40;99.90;;;;;;5088683;28;20279;-77
2021/12/19 01:30:47;;;;;;;63.90;21.30;;;1.40;99.90;;;;;;5088499;28;20214;-77
2021/12/19 01:33:14;;;;;;;41.95;20.40;;;1.30;99.90;;;;;;5088378;28;20300;-77
2021/12/19 01:35:41;;;;;;;37.22;19.67;;;1.30;99.90;;;;;;5089749;28;20200;-77
2021/12/19 01:38:07;;;;;;;36.70;18.52;;;1.30;99.90;;;;;;5089972;28;20693;-77
2021/12/19 01:40:36;;;;;;;42.03;16.90;;;1.30;99.90;;;;;;5088147;28;20203;-78
2021/12/19 01:43:03;;;;;;;45.20;16.30;;;1.30;99.90;;;;;;5087121;28;20216;-78
2021/12/19 01:45:32;;;;;;;38.92;15.38;;;1.30;99.90;;;;;;5088177;28;20227;-78
2021/12/19 01:48:01;;;;;;;32.38;16.05;;;1.30;99.90;;;;;;5088681;28;20575;-78
2021/12/19 01:50:29;;;;;;;29.95;15.93;;;1.30;99.90;;;;;;5088188;28;20519;-77
2021/12/19 01:52:56;;;;;;;30.23;14.82;;;1.30;99.90;;;;;;5088433;28;20246;-77
2021/12/19 01:55:26;;;;;;;30.63;15.80;;;1.30;99.90;;;;;;5088712;28;20207;-77
2021/12/19 01:57:55;;;;;;;28.65;15.15;;;1.30;99.90;;;;;;5088152;28;20203;-77
2021/12/19 02:00:26;;;;;;;29.25;15.50;;;1.40;99.90;;;;;;5088293;28;20761;-77
2021/12/19 02:02:54;;;;;;;37.58;16.00;;;1.40;99.90;;;;;;5087648;28;20215;-77
2021/12/19 02:05:21;;;;;;;33.67;16.98;;;1.40;99.90;;;;;;5087197;28;20238;-77
2021/12/19 02:07:49;;;;;;;33.53;17.45;;;1.40;99.90;;;;;;5088406;28;20233;-78
2021/12/19 02:10:19;;;;;;;34.72;19.90;;;1.50;99.90;;;;;;5088357;28;20208;-77
2021/12/19 02:12:47;;;;;;;34.33;17.40;;;1.50;99.90;;;;;;5088008;28;20249;-77
2021/12/19 02:15:19;;;;;;;39.97;19.35;;;1.50;99.90;;;;;;5088228;28;20312;-78
2021/12/19 02:17:47;;;;;;;39.80;18.20;;;1.50;99.90;;;;;;5088027;28;20252;-77
2021/12/19 02:20:16;;;;;;;29.42;15.63;;;1.50;99.90;;;;;;5087937;28;20575;-77
2021/12/19 02:22:43;;;;;;;33.10;17.40;;;1.60;99.90;;;;;;5087377;28;20667;-77
2021/12/19 02:25:11;;;;;;;29.90;16.08;;;1.60;99.90;;;;;;5088025;28;20569;-77
2021/12/19 02:27:38;;;;;;;36.80;16.85;;;1.60;99.90;;;;;;5088385;28;20207;-77
2021/12/19 02:30:07;;;;;;;34.38;16.73;;;1.60;99.90;;;;;;5088707;28;20219;-77
2021/12/19 02:32:35;;;;;;;35.90;15.45;;;1.70;99.90;;;;;;5088232;28;20580;-77
2021/12/19 02:35:05;;;;;;;27.60;15.75;;;1.70;99.90;;;;;;5088953;28;20735;-77
2021/12/19 02:38:06;;;;;;;33.90;16.10;;;1.70;99.90;;;;;;5091115;28;20215;-77
2021/12/19 02:48:09;;;;;;;29.23;14.98;;;1.70;99.90;;;;;;5161292;22;20239;-72
2021/12/19 02:48:56;;;;;;;35.33;18.90;;;1.70;99.90;;;;;;5058578;28;20244;-71
2021/12/19 02:51:23;;;;;;;41.22;17.65;;;1.70;99.90;;;;;;5090003;28;20242;-72
2021/12/19 02:53:51;;;;;;;43.65;18.27;;;1.60;99.90;;;;;;5090171;28;20223;-71
2021/12/19 02:56:21;;;;;;;48.00;15.63;;;1.60;99.90;;;;;;5090418;28;20222;-71
2021/12/19 02:58:48;;;;;;;42.28;19.17;;;1.50;99.90;;;;;;5090332;28;20561;-71
2021/12/19 03:01:18;;;;;;;61.92;18.65;;;1.40;99.90;;;;;;5090017;28;20207;-71
2021/12/19 03:03:45;;;;;;;38.72;16.58;;;1.30;99.90;;;;;;5090016;28;20231;-71
2021/12/19 03:06:12;;;;;;;41.72;17.98;;;1.30;99.90;;;;;;5090195;28;20200;-71
2021/12/19 03:08:43;;;;;;;44.15;18.02;;;1.30;99.90;;;;;;5089619;28;20245;-71
2021/12/19 03:19:39;;;;;;;32.67;17.55;;;1.20;99.90;;;;;;5074034;28;20234;-71
2021/12/19 03:22:06;;;;;;;36.00;17.55;;;1.20;99.90;;;;;;5093422;28;20697;-71
2021/12/19 03:24:33;;;;;;;32.95;14.95;;;1.30;99.90;;;;;;5093940;28;20220;-71
2021/12/19 03:27:01;;;;;;;30.85;14.77;;;1.30;99.90;;;;;;5093753;28;20229;-71
2021/12/19 03:29:27;;;;;;;33.92;16.45;;;1.40;99.90;;;;;;5093947;28;20207;-71
2021/12/19 03:31:54;;;;;;;34.50;16.20;;;1.40;99.90;;;;;;5093160;28;20211;-72
2021/12/19 03:34:22;;;;;;;25.88;14.20;;;1.40;99.90;;;;;;5094181;28;20723;-71
2021/12/19 03:36:51;;;;;;;30.92;15.30;;;1.40;99.90;;;;;;5090665;28;20195;-72
2021/12/19 03:39:26;;;;;;;26.13;13.77;;;1.40;99.90;;;;;;5092388;28;20735;-72
2021/12/19 03:41:56;;;;;;;27.92;14.48;;;1.50;99.90;;;;;;5092792;28;20256;-72
2021/12/19 03:44:24;;;;;;;32.20;14.88;;;1.50;99.90;;;;;;5093434;28;20223;-72
2021/12/19 03:46:51;;;;;;;27.35;13.60;;;1.40;99.90;;;;;;5093141;28;20196;-72
2021/12/19 03:49:19;;;;;;;26.77;13.43;;;1.40;99.90;;;;;;5093298;28;20207;-72
2021/12/19 03:51:47;;;;;;;27.52;14.30;;;1.40;99.90;;;;;;5092638;28;20210;-72
2021/12/19 03:54:13;;;;;;;26.60;14.05;;;1.40;99.90;;;;;;5093282;28;20628;-72
2021/12/19 03:56:40;;;;;;;25.65;13.45;;;1.40;99.90;;;;;;5093078;28;20207;-72
2021/12/19 03:59:07;;;;;;;26.40;13.80;;;1.30;99.90;;;;;;5093291;28;20319;-72
2021/12/19 04:01:35;;;;;;;39.25;14.00;;;1.30;99.90;;;;;;5092633;28;20208;-71
2021/12/19 04:04:02;;;;;;;31.65;17.25;;;1.30;99.90;;;;;;5092591;28;20228;-72
2021/12/19 04:06:29;;;;;;;34.47;13.95;;;1.20;99.90;;;;;;5093129;28;20204;-71
2021/12/19 04:08:57;;;;;;;26.85;12.75;;;1.10;99.90;;;;;;5092651;28;20215;-72
2021/12/19 04:11:25;;;;;;;33.28;14.65;;;1.00;99.90;;;;;;5092585;28;20210;-72
2021/12/19 04:13:52;;;;;;;27.85;14.27;;;1.00;99.90;;;;;;5092610;28;20219;-71
2021/12/19 04:16:18;;;;;;;27.27;13.52;;;1.00;99.90;;;;;;5092823;28;20207;-71
2021/12/19 04:18:47;;;;;;;27.92;12.90;;;1.00;99.90;;;;;;5092415;28;20216;-72
2021/12/19 04:21:13;;;;;;;26.05;13.32;;;0.90;99.90;;;;;;5092203;28;20690;-71
2021/12/19 04:23:40;;;;;;;27.63;13.60;;;0.80;99.90;;;;;;5092363;28;20227;-71
2021/12/19 04:26:07;;;;;;;25.08;13.38;;;0.80;99.90;;;;;;5092481;28;20318;-71
2021/12/19 04:28:34;;;;;;;29.45;13.23;;;0.90;99.90;;;;;;5091657;28;20212;-72
2021/12/19 04:31:02;;;;;;;29.40;13.50;;;0.90;99.90;;;;;;5091770;28;20207;-72
2021/12/19 04:33:30;;;;;;;26.90;12.27;;;0.90;99.90;;;;;;5092568;28;20277;-71
2021/12/19 04:36:01;;;;;;;27.20;12.75;;;0.90;99.90;;;;;;5092287;28;20245;-71
2021/12/19 04:41:39;;;;;;;18.02;10.70;;;0.90;99.90;;;;;;5091836;28;20200;-71
2021/12/19 04:44:34;;;;;;;23.63;11.82;;;0.90;99.90;;;;;;5091808;28;20310;-72
2021/12/19 04:52:58;;;;;;;19.48;10.52;;;0.70;99.90;;;;;;5091628;28;20256;-72
2021/12/19 05:01:14;;;;;;;22.10;10.65;;;0.70;99.90;;;;;;5091329;28;20230;-72
2021/12/19 05:03:47;;;;;;;16.73;10.15;;;0.80;99.90;;;;;;5091458;28;20243;-71
2021/12/19 05:06:21;;;;;;;21.63;11.07;;;0.80;99.90;;;;;;5091923;28;20219;-71
2021/12/19 05:14:21;;;;;;;21.50;10.10;;;0.70;99.90;;;;;;5091758;28;20252;-71
2021/12/19 05:16:49;;;;;;;21.52;11.57;;;0.70;99.90;;;;;;5091337;28;20207;-71
2021/12/19 05:19:25;;;;;;;18.58;10.55;;;0.70;99.90;;;;;;5091832;28;20200;-71
2021/12/19 05:21:56;;;;;;;24.00;9.45;;;0.70;99.90;;;;;;5090823;28;20696;-71
2021/12/19 05:24:48;;;;;;;17.38;9.50;;;0.70;99.90;;;;;;5091219;28;20224;-72
2021/12/19 05:27:15;;;;;;;23.38;12.23;;;0.80;99.90;;;;;;5091596;28;20206;-72
2021/12/19 05:29:42;;;;;;;21.42;10.88;;;0.70;99.90;;;;;;5090982;28;20200;-72
2021/12/19 05:32:09;;;;;;;19.50;10.68;;;0.60;99.90;;;;;;5090618;28;20207;-72
2021/12/19 05:34:37;;;;;;;22.00;11.20;;;0.70;99.90;;;;;;5091124;28;20208;-72
2021/12/19 05:45:20;;;;;;;15.70;8.20;;;0.80;99.90;;;;;;5090921;28;20269;-72
2021/12/19 05:47:49;;;;;;;12.07;7.65;;;0.90;99.90;;;;;;5090675;28;20240;-72
2021/12/19 05:50:18;;;;;;;12.82;6.85;;;0.80;99.90;;;;;;5091015;28;20204;-72
2021/12/19 05:52:45;;;;;;;13.65;8.02;;;0.80;99.90;;;;;;5089946;28;20223;-72
2021/12/19 05:55:14;;;;;;;13.35;7.43;;;0.80;99.90;;;;;;5091024;28;20200;-72
2021/12/19 05:57:40;;;;;;;15.55;7.68;;;0.90;99.90;;;;;;5090633;28;20286;-72
2021/12/19 06:00:12;;;;;;;15.45;8.98;;;0.90;99.90;;;;;;5090707;28;20689;-72
2021/12/19 06:02:39;;;;;;;13.93;7.97;;;0.90;99.90;;;;;;5089703;28;20741;-72
2021/12/19 06:05:07;;;;;;;16.42;8.90;;;0.90;99.90;;;;;;5090594;28;20231;-72
2021/12/19 06:07:34;;;;;;;15.82;9.38;;;0.80;99.90;;;;;;5090791;28;20203;-72
2021/12/19 06:10:04;;;;;;;14.73;9.05;;;0.80;99.90;;;;;;5090588;28;20562;-72
2021/12/19 06:12:32;;;;;;;20.70;7.97;;;0.80;99.90;;;;;;5089882;28;20253;-72
2021/12/19 06:14:59;;;;;;;16.33;8.20;;;0.80;99.90;;;;;;5090191;28;20242;-73
2021/12/19 06:17:26;;;;;;;14.70;8.35;;;0.80;99.90;;;;;;5090688;28;20199;-73
2021/12/19 06:19:53;;;;;;;14.05;8.45;;;0.80;99.90;;;;;;5090370;28;20204;-73
2021/12/19 06:22:20;;;;;;;14.23;7.82;;;0.80;99.90;;;;;;5090171;28;20226;-73
2021/12/19 06:24:46;;;;;;;13.55;7.75;;;0.70;99.90;;;;;;5090223;28;20678;-73
2021/12/19 06:27:13;;;;;;;10.65;7.30;;;0.70;99.90;;;;;;5090540;28;20199;-73
2021/12/19 06:29:41;;;;;;;11.43;7.80;;;0.70;99.90;;;;;;5090365;28;20583;-73
2021/12/19 06:32:08;;;;;;;11.45;6.60;;;0.80;99.90;;;;;;5089739;28;20229;-73
2021/12/19 06:34:35;;;;;;;12.95;7.40;;;0.80;99.90;;;;;;5090512;28;20207;-73
2021/12/19 06:37:02;;;;;;;13.60;8.25;;;0.70;99.90;;;;;;5090321;28;20195;-73
2021/12/19 06:39:28;;;;;;;12.50;8.23;;;0.70;99.90;;;;;;5090434;28;20200;-73
2021/12/19 06:41:55;;;;;;;12.48;7.43;;;0.70;99.90;;;;;;5089238;28;20204;-72
2021/12/19 06:44:22;;;;;;;11.07;6.82;;;0.60;99.90;;;;;;5090143;28;20247;-71
2021/12/19 06:46:50;;;;;;;15.70;7.57;;;0.60;99.90;;;;;;5090076;28;20215;-72
2021/12/19 06:49:17;;;;;;;14.00;7.88;;;0.70;99.90;;;;;;5090241;28;20200;-72
2021/12/19 06:51:44;;;;;;;12.60;7.32;;;0.60;99.90;;;;;;5092464;28;20203;-71
2021/12/19 06:54:10;;;;;;;13.55;8.45;;;0.60;99.90;;;;;;5094243;28;20737;-72
2021/12/19 06:56:37;;;;;;;12.25;8.50;;;0.70;99.90;;;;;;5094237;28;20204;-72
2021/12/19 06:59:04;;;;;;;11.77;6.88;;;0.70;99.90;;;;;;5093888;28;20203;-71
2021/12/19 07:01:31;;;;;;;12.00;7.20;;;0.60;99.90;;;;;;5093581;28;20200;-71
2021/12/19 07:03:59;;;;;;;13.05;7.82;;;0.50;99.90;;;;;;5093436;28;20223;-72
2021/12/19 07:06:26;;;;;;;12.50;7.53;;;0.40;99.90;;;;;;5090920;28;20783;-71
2021/12/19 07:08:53;;;;;;;13.35;6.90;;;0.40;99.90;;;;;;5093430;28;20199;-72
2021/12/19 07:11:20;;;;;;;11.07;6.78;;;0.40;99.90;;;;;;5093373;28;20210;-72
2021/12/19 07:13:46;;;;;;;11.57;6.30;;;0.50;99.90;;;;;;5093325;28;20738;-72
2021/12/19 07:16:13;;;;;;;13.25;7.35;;;0.60;99.90;;;;;;5094136;28;20218;-71
2021/12/19 07:18:42;;;;;;;9.73;6.85;;;0.60;99.90;;;;;;5093567;28;20208;-71
2021/12/19 07:21:11;;;;;;;11.35;7.03;;;0.60;99.90;;;;;;5093384;28;20207;-72
2021/12/19 07:23:38;;;;;;;11.10;6.90;;;0.70;99.90;;;;;;5093602;28;20267;-72
2021/12/19 07:26:05;;;;;;;9.30;6.53;;;0.70;99.90;;;;;;5093628;28;20220;-72
2021/12/19 07:28:32;;;;;;;13.27;7.47;;;0.70;99.90;;;;;;5093012;28;20200;-72
2021/12/19 07:30:59;;;;;;;12.90;6.80;;;0.70;99.90;;;;;;5092219;28;20223;-72
2021/12/19 07:33:25;;;;;;;9.88;5.88;;;0.70;99.90;;;;;;5092858;28;20223;-72
2021/12/19 07:35:53;;;;;;;7.57;5.80;;;0.70;99.90;;;;;;5092663;28;20199;-72
2021/12/19 07:38:27;;;;;;;11.55;6.07;;;0.80;99.90;;;;;;5093092;28;20220;-72
2021/12/19 07:40:56;;;;;;;11.38;6.45;;;0.70;99.90;;;;;;5091870;28;20199;-71
2021/12/19 07:43:23;;;;;;;16.23;5.53;;;0.60;99.90;;;;;;5090093;28;20267;-72
2021/12/19 07:45:49;;;;;;;12.88;6.80;;;0.60;99.90;;;;;;5092743;28;20297;-72
2021/12/19 07:48:16;;;;;;;9.63;5.72;;;0.60;99.90;;;;;;5093230;28;20208;-72
2021/12/19 07:50:43;;;;;;;11.60;7.07;;;0.60;99.90;;;;;;5093037;28;20204;-72
2021/12/19 07:53:10;;;;;;;8.75;6.22;;;0.60;99.90;;;;;;5092548;28;20224;-72
2021/12/19 07:55:38;;;;;;;8.55;5.72;;;0.60;99.90;;;;;;5093106;28;20192;-69
2021/12/19 07:58:05;;;;;;;6.50;4.75;;;0.70;99.90;;;;;;5092777;28;20238;-70
2021/12/19 08:00:32;;;;;;;8.50;4.93;;;0.70;99.90;;;;;;5093094;28;20208;-70
2021/12/19 08:02:58;;;;;;;7.22;4.53;;;0.70;99.90;;;;;;5091279;28;20227;-72
2021/12/19 08:05:25;;;;;;;6.20;4.15;;;0.80;99.90;;;;;;5092873;28;20220;-72
2021/12/19 08:07:59;;;;;;;7.40;4.50;;;0.80;99.90;;;;;;5092674;28;20203;-72
2021/12/19 08:13:12;;;;;;;7.15;4.00;;;0.80;99.90;;;;;;5092377;28;20277;-71
2021/12/19 08:15:39;;;;;;;5.13;3.90;;;0.90;99.90;;;;;;5092624;28;20223;-71
2021/12/19 08:18:07;;;;;;;5.82;3.83;;;0.90;99.90;;;;;;5092548;28;20203;-72
2021/12/19 08:20:34;;;;;;;5.65;4.07;;;0.90;99.90;;;;;;5092794;28;20196;-71
2021/12/19 08:23:01;;;;;;;5.15;3.75;;;0.90;99.90;;;;;;5091690;28;20710;-71
2021/12/19 08:25:28;;;;;;;5.95;3.55;;;0.80;99.90;;;;;;5092442;28;20199;-71
2021/12/19 08:27:55;;;;;;;5.45;3.30;;;0.80;99.90;;;;;;5092166;28;20295;-71
2021/12/19 08:30:24;;;;;;;5.05;3.90;;;0.80;99.90;;;;;;5091727;28;20188;-71
2021/12/19 08:32:52;;;;;;;6.20;3.65;;;0.70;99.90;;;;;;5092032;28;20230;-71
2021/12/19 08:35:19;;;;;;;4.88;3.10;;;0.70;99.90;;;;;;5092028;28;20578;-72
2021/12/19 08:37:46;;;;;;;3.97;3.17;;;0.70;99.90;;;;;;5092532;28;20281;-72
2021/12/19 08:42:57;;;;;;;7.97;4.18;;;0.80;99.90;;;;;;1500877;26;20209;-91
2021/12/19 08:45:26;;;;;;;4.72;3.30;;;0.90;99.90;;;;;;5062938;28;20254;-92
2021/12/19 08:47:53;;;;;;;4.30;3.00;;;0.90;99.90;;;;;;5061068;28;20208;-93
2021/12/19 08:50:21;;;;;;;6.45;3.90;;;0.90;99.90;;;;;;5060290;28;20673;-92
2021/12/19 08:52:48;;;;;;;3.67;3.03;;;0.90;99.90;;;;;;5052979;28;20205;-91
2021/12/19 08:55:15;;;;;;;5.45;3.45;;;1.00;99.90;;;;;;5055653;28;20193;-91
2021/12/19 08:57:42;;;;;;;4.82;3.20;;;0.90;99.90;;;;;;5057582;28;20574;-91
2021/12/19 09:00:11;;;;;;;4.32;3.30;;;1.00;99.90;;;;;;5057238;28;20297;-91
2021/12/19 09:02:41;;;;;;;5.80;3.78;;;1.00;99.90;;;;;;5057595;28;20201;-91
2021/12/19 09:05:09;;;;;;;5.25;3.40;;;1.00;99.90;;;;;;5056730;28;20263;-92
2021/12/19 09:07:36;;;;;;;4.43;3.95;;;1.00;99.90;;;;;;5058042;28;20247;-92
2021/12/19 09:10:04;;;;;;;7.90;4.53;;;1.00;99.90;;;;;;5056876;28;20205;-90
2021/12/19 09:12:31;;;;;;;5.10;3.95;;;1.10;99.90;;;;;;5056467;28;20221;-89
2021/12/19 09:14:58;;;;;;;6.60;4.45;;;1.00;99.90;;;;;;5052179;28;20201;-90
2021/12/19 09:17:25;;;;;;;6.57;4.53;;;1.00;99.90;;;;;;5054948;28;20201;-90
2021/12/19 09:19:53;;;;;;;7.32;4.05;;;1.00;99.90;;;;;;5055522;28;20212;-90
2021/12/19 09:22:20;;;;;;;4.50;3.20;;;1.00;99.90;;;;;;5054585;28;20738;-90
2021/12/19 09:24:47;;;;;;;6.15;4.18;;;1.00;99.90;;;;;;5057958;28;20201;-93
2021/12/19 09:27:14;;;;;;;4.85;3.50;;;1.10;99.90;;;;;;5053725;28;20312;-90
2021/12/19 09:29:41;;;;;;;6.07;4.05;;;1.10;99.90;;;;;;5057384;28;20635;-91
2021/12/19 09:32:08;;;;;;;6.82;3.75;;;1.20;99.90;;;;;;5054248;28;21854;-89
2021/12/19 09:34:35;;;;;;;5.72;3.55;;;1.30;99.90;;;;;;5036052;28;20251;-90
2021/12/19 09:37:04;;;;;;;5.25;3.67;;;1.30;99.90;;;;;;5035689;28;20225;-91
2021/12/19 09:39:32;;;;;;;6.30;3.75;;;1.10;99.90;;;;;;5035839;28;20202;-91
2021/12/19 09:42:07;;;;;;;5.13;3.60;;;1.10;99.90;;;;;;5042268;28;20277;-93
2021/12/19 09:44:35;;;;;;;5.22;3.30;;;1.00;99.90;;;;;;5041452;28;20213;-92
2021/12/19 09:47:02;;;;;;;5.43;4.00;;;1.00;99.90;;;;;;5038072;28;20214;-92
2021/12/19 09:49:29;;;;;;;6.40;3.78;;;1.10;99.90;;;;;;5037043;28;20205;-91
2021/12/19 09:51:56;;;;;;;8.50;3.80;;;1.20;99.90;;;;;;5037743;28;20218;-93
2021/12/19 09:54:24;;;;;;;5.88;4.22;;;1.20;99.90;;;;;;5037904;28;20563;-91
2021/12/19 09:56:51;;;;;;;5.72;3.40;;;1.30;99.90;;;;;;5042654;28;20205;-90
2021/12/19 09:59:20;;;;;;;3.40;2.72;;;1.30;99.90;;;;;;5054066;28;20189;-89
2021/12/19 10:01:49;;;;;;;5.07;2.92;;;1.40;99.90;;;;;;5054504;28;20220;-89
2021/12/19 10:04:29;;;;;;;3.25;2.85;;;1.40;99.90;;;;;;5034028;28;20201;-90
2021/12/19 10:07:12;;;;;;;4.20;2.72;;;1.60;99.90;;;;;;5033744;28;20217;-90
2021/12/19 10:10:00;;;;;;;4.18;2.80;;;1.70;99.90;;;;;;5051453;28;20205;-89
2021/12/19 10:12:39;;;;;;;3.90;2.97;;;1.70;99.90;;;;;;5039026;28;20797;-90
2021/12/19 10:15:09;;;;;;;3.45;2.58;;;1.70;99.90;;;;;;5038655;28;20227;-91
2021/12/19 10:17:37;;;;;;;3.30;3.00;;;1.80;99.90;;;;;;5044344;28;20200;-91
2021/12/19 10:20:06;;;;;;;3.55;2.80;;;1.80;99.90;;;;;;5057518;28;20212;-90
2021/12/19 10:22:38;;;;;;;4.82;3.03;;;1.80;99.90;;;;;;5055632;28;20229;-91
2021/12/19 10:25:18;;;;;;;4.43;2.85;;;1.90;99.90;;;;;;5053826;28;20584;-91
2021/12/19 10:27:47;;;;;;;2.30;2.08;;;1.90;99.90;;;;;;5055479;28;20303;-90
2021/12/19 10:30:20;;;;;;;4.93;3.53;;;1.90;99.90;;;;;;5052746;28;20559;-91
2021/12/19 10:32:52;;;;;;;2.90;2.55;;;1.90;99.90;;;;;;5053474;28;20220;-90
2021/12/19 10:35:21;;;;;;;4.60;3.38;;;2.00;99.90;;;;;;5056097;28;20296;-89
2021/12/19 10:37:48;;;;;;;4.00;3.45;;;2.00;99.90;;;;;;5055086;28;20624;-89
2021/12/19 10:40:17;;;;;;;3.22;2.83;;;2.00;99.90;;;;;;5054014;28;20232;-89
2021/12/19 10:42:46;;;;;;;4.88;3.15;;;2.00;99.90;;;;;;5055061;28;20213;-90
2021/12/19 10:45:32;;;;;;;4.75;3.80;;;2.10;99.90;;;;;;5055283;28;20215;-90
2021/12/19 10:48:20;;;;;;;3.97;2.58;;;2.10;99.90;;;;;;5053704;28;20270;-91
2021/12/19 10:50:50;;;;;;;4.68;3.00;;;2.10;99.90;;;;;;5055596;28;20311;-88
2021/12/19 10:53:18;;;;;;;4.43;3.60;;;2.10;99.90;;;;;;5053835;28;20201;-90
2021/12/19 10:55:49;;;;;;;5.88;3.70;;;2.10;99.90;;;;;;5053307;28;20217;-90
2021/12/19 10:58:26;;;;;;;4.93;2.92;;;2.20;99.90;;;;;;5053340;28;20209;-90
2021/12/19 11:01:29;;;;;;;4.20;3.00;;;2.10;99.90;;;;;;5053351;28;20334;-88
2021/12/19 11:04:01;;;;;;;3.95;3.30;;;2.20;99.90;;;;;;4992603;28;20206;-89
2021/12/19 11:06:37;;;;;;;6.00;4.20;;;2.20;99.90;;;;;;5042646;28;20224;-90
2021/12/19 11:09:08;;;;;;;3.58;2.83;;;2.20;99.90;;;;;;5057550;28;20197;-93
2021/12/19 11:12:13;;;;;;;3.42;3.13;;;2.20;99.90;;;;;;5057614;28;20259;-92
2021/12/19 11:15:04;;;;;;;4.40;3.13;;;2.30;99.90;;;;;;5054293;28;20225;-91
2021/12/19 11:17:35;;;;;;;5.40;3.65;;;2.30;99.90;;;;;;5054957;28;20221;-92
2021/12/19 11:20:02;;;;;;;4.95;3.85;;;2.40;99.90;;;;;;5064952;28;20201;-91
2021/12/19 11:22:32;;;;;;;5.70;4.32;;;2.40;99.90;;;;;;5058302;28;20308;-92
2021/12/19 11:38:53;;;;;;;5.00;3.72;;;1.70;99.90;;;;;;5019145;28;20673;-90
2021/12/19 11:44:33;;;;;;;8.65;4.00;;;1.80;99.90;;;;;;5034748;28;20223;-93
2021/12/19 11:47:17;;;;;;;5.25;3.58;;;1.90;99.90;;;;;;5065079;28;20231;-92
2021/12/19 11:49:46;;;;;;;5.07;3.70;;;2.00;99.90;;;;;;5060724;28;20201;-94
2021/12/19 11:52:30;;;;;;;4.93;3.75;;;2.10;99.90;;;;;;5057387;28;20236;-93
2021/12/19 11:58:32;;;;;;;4.85;3.70;;;2.20;99.90;;;;;;5127499;27;20529;-73
2021/12/19 12:01:07;;;;;;;5.07;3.50;;;2.20;99.90;;;;;;5127290;27;20201;-73
2021/12/19 12:03:53;;;;;;;6.63;4.05;;;2.30;99.90;;;;;;5114820;27;20242;-73
2021/12/19 12:06:35;;;;;;;6.00;4.55;;;2.30;99.90;;;;;;5107418;28;20207;-73
2021/12/19 12:09:22;;;;;;;6.80;5.40;;;2.30;99.90;;;;;;5107732;28;20716;-73
2021/12/19 12:12:11;;;;;;;6.88;4.38;;;2.20;99.90;;;;;;5106758;28;20306;-73
2021/12/19 12:14:41;;;;;;;9.23;5.10;;;1.90;99.90;;;;;;5107187;28;20203;-75
2021/12/19 12:17:15;;;;;;;5.85;3.97;;;1.90;99.90;;;;;;5107577;28;20258;-73
2021/12/19 12:19:43;;;;;;;4.88;4.18;;;1.90;99.90;;;;;;5107575;28;20203;-73
2021/12/19 12:22:35;;;;;;;3.70;3.28;;;2.00;99.90;;;;;;5106678;28;20199;-74
2021/12/19 12:25:15;;;;;;;6.75;3.75;;;2.10;99.90;;;;;;5107754;28;20199;-74
2021/12/19 12:27:44;;;;;;;5.55;4.10;;;2.10;99.90;;;;;;5106997;28;20202;-74
2021/12/19 12:30:13;;;;;;;4.60;3.50;;;2.20;99.90;;;;;;5107470;28;20206;-74
2021/12/19 12:32:42;;;;;;;6.65;4.25;;;2.20;99.90;;;;;;5106030;28;20241;-74
2021/12/19 12:35:11;;;;;;;6.55;4.50;;;2.20;99.90;;;;;;5106858;28;20204;-74
2021/12/19 12:37:39;;;;;;;6.28;4.35;;;2.20;99.90;;;;;;5106669;28;20223;-74
2021/12/19 12:40:28;;;;;;;5.07;3.92;;;2.30;99.90;;;;;;5093571;28;20725;-75
2021/12/19 12:43:05;;;;;;;4.85;3.25;;;2.30;99.90;;;;;;5089188;28;20219;-76
2021/12/19 12:46:00;;;;;;;6.60;4.00;;;2.40;99.90;;;;;;5106073;28;20215;-75
2021/12/19 12:48:38;;;;;;;4.95;3.55;;;2.40;99.90;;;;;;5106455;28;20606;-75
2021/12/19 12:51:07;;;;;;;5.38;3.83;;;2.20;99.90;;;;;;5105461;28;20206;-76
2021/12/19 12:53:36;;;;;;;4.70;3.42;;;2.10;99.90;;;;;;5106221;28;20230;-75
2021/12/19 12:56:11;;;;;;;5.22;4.07;;;2.00;99.90;;;;;;5106221;28;20214;-76
2021/12/19 12:58:41;;;;;;;4.25;3.33;;;1.90;99.90;;;;;;5105248;28;20257;-76
2021/12/19 13:01:23;;;;;;;4.72;3.42;;;1.90;99.90;;;;;;5105740;28;20203;-76
2021/12/19 13:04:10;;;;;;;4.13;3.70;;;2.00;99.90;;;;;;5106132;28;20242;-76
2021/12/19 13:06:58;;;;;;;6.43;4.47;;;2.10;99.90;;;;;;5105330;28;20200;-76
2021/12/19 13:09:36;;;;;;;4.32;3.53;;;2.10;99.90;;;;;;5091892;28;20206;-76
2021/12/19 13:12:10;;;;;;;5.30;3.80;;;2.10;99.90;;;;;;5091345;28;20199;-75
2021/12/19 13:14:39;;;;;;;5.20;3.70;;;2.20;99.90;;;;;;5092145;28;20227;-76
2021/12/19 13:17:08;;;;;;;5.00;4.00;;;2.20;99.90;;;;;;5092469;28;20247;-76
2021/12/19 13:19:49;;;;;;;3.95;3.60;;;2.10;99.90;;;;;;5092190;28;20578;-75
2021/12/19 13:22:22;;;;;;;5.95;4.35;;;2.10;99.90;;;;;;5091299;28;20697;-76
2021/12/19 13:24:50;;;;;;;4.88;3.92;;;2.00;99.90;;;;;;5092211;28;20207;-75
2021/12/19 13:27:19;;;;;;;5.32;4.55;;;2.00;99.90;;;;;;5081455;28;20196;-76
2021/12/19 13:30:00;;;;;;;4.95;4.20;;;2.00;99.90;;;;;;5078464;28;20196;-76
2021/12/19 13:32:32;;;;;;;5.90;4.22;;;2.00;99.90;;;;;;5090682;28;20223;-76
2021/12/19 13:35:02;;;;;;;7.90;4.50;;;2.10;99.90;;;;;;5091757;28;20203;-75
2021/12/19 13:37:33;;;;;;;5.72;4.18;;;2.10;99.90;;;;;;5092265;28;20220;-75
2021/12/19 13:40:08;;;;;;;4.88;3.63;;;2.20;99.90;;;;;;5093697;28;20203;-76
2021/12/19 13:42:41;;;;;;;3.70;3.40;;;2.20;99.90;;;;;;5091945;28;20226;-76
2021/12/19 13:45:26;;;;;;;4.30;3.60;;;2.20;99.90;;;;;;5092757;28;20204;-76
2021/12/19 13:47:54;;;;;;;4.70;3.75;;;2.20;99.90;;;;;;5092503;28;20659;-75
2021/12/19 13:50:22;;;;;;;4.13;3.50;;;2.30;99.90;;;;;;5091828;28;20616;-75
2021/12/19 13:52:50;;;;;;;4.28;3.83;;;2.20;99.90;;;;;;5090946;28;20698;-75
2021/12/19 13:55:17;;;;;;;4.22;3.47;;;2.30;99.90;;;;;;5092275;28;20192;-75
2021/12/19 13:57:44;;;;;;;4.90;4.10;;;2.30;99.90;;;;;;5091345;28;20775;-75
2021/12/19 14:00:26;;;;;;;5.10;3.75;;;2.30;99.90;;;;;;5092263;28;20211;-76
2021/12/19 14:02:53;;;;;;;4.25;3.60;;;2.30;99.90;;;;;;5090446;28;20729;-75
2021/12/19 14:05:34;;;;;;;5.10;3.90;;;2.20;99.90;;;;;;5091998;28;20196;-75
2021/12/19 14:08:01;;;;;;;6.75;3.65;;;2.10;99.90;;;;;;5091755;28;20191;-75
2021/12/19 14:10:28;;;;;;;4.22;3.75;;;2.10;99.90;;;;;;5091635;28;20838;-75
2021/12/19 14:13:06;;;;;;;5.22;4.05;;;2.10;99.90;;;;;;5090834;28;20216;-75
2021/12/19 14:15:34;;;;;;;5.53;4.05;;;2.00;99.90;;;;;;5091429;28;20196;-75